Página principal
METAR-TAF:

METAR-TAF

Aeroportos :

Aeroporto Internacional do Bahrain

Bahrein, Bahrein

latitude: 26-16N, longitude: 050-39E, altura: 2 m

Observação actual do tempo

O boletim foi feito há 26 minutos, às 14:00 UTC
Vento 14 kt de norte
Temperatura 38°C
Humidade 31%
Pressão 996 hPa
Visibilidade: 9000 m
Céu limpo

METAR: OBBI 181400Z 36014KT 9000 SKC 38/18 Q0996 NOSIG

Hora: 17:26 (14:26 UTC)

Previsão

O boletim foi feito há 3 horas e 26 minutos, às 11:00 UTC
Previsão válida de 18 às 12 UTC a 19 às 18 UTC
Vento 15 kt de nor-noroeste
Visibilidade 10 km ou mais
sem nuvens abaixo de 1500 metros e sem cumulonimbus
Tornando-se
de 18 às 16 UTC a 18 às 18 UTC
Vento 5 kt com direcção variável
Probabilidade 30% :
Temporariamente
de 18 às 20 UTC a 19 às 00 UTC
Visibilidade: 5000 m
poeira extensa

TAF: OBBI 181100Z 1812/1918 33015KT CAVOK BECMG 1816/1818 VRB05KT PROB30 TEMPO 1820/1900 5000 DU NSC

Observações e previsões do tempo de mais de 4000 aeroportos (mensagens METAR e TAF).

As estações disponíveis são os pontos amarelos e vermelhos sobre o mapa.

Mova o rato sobre o mapa para ver o nome da estação.

Depois clique no ponto para visualizar as observações e previsões meteorológicas.

Para alterar o mapa : clique nos botões verdes com uma cruz preta para aumentar o zoom; no botão verde com uma pitada de zoom; ou nas setas verdes para mapas adjacentes.


METAR-TAF: